Time;durP1;ratioP1;P1;durP2;ratioP2;P2;SDS_P1;SDS_P2;PMS_P1;PMS_P2;Temp;Humidity;BMP_temperature;BMP_pressure;BME280_temperature;BME280_humidity;BME280_pressure;Samples;Min_cycle;Max_cycle;Signal;HPM_P1;HPM_P2
2021/12/12 00:00:09;;;;;;;;;;;;;;;21.90;31.45;97278.94;5076070;28;914;-75
2021/12/12 00:05:31;;;;;;;;;;;;;;;21.86;31.05;97283.94;4977240;28;1967;-76
2021/12/12 00:07:56;;;;;;;;;;;;;;;22.05;31.20;97284.81;4977021;28;941;-76
2021/12/12 00:10:23;;;;;;;;;;;;;;;21.76;31.85;97279.47;4977155;28;932;-76
2021/12/12 00:12:49;;;;;;;;;;;;;;;21.92;31.37;97270.00;4977175;28;947;-76
2021/12/12 00:15:15;;;;;;;;;;;;;;;21.84;30.96;97273.06;4976810;28;930;-75
2021/12/12 00:17:41;;;;;;;;;;;;;;;22.03;30.70;97264.69;4976898;28;926;-75
2021/12/12 00:20:06;;;;;;;;;;;;;;;21.33;32.22;97269.78;4976817;28;834;-76
2021/12/12 00:22:32;;;;;;;;;;;;;;;21.65;32.02;97262.91;4977011;28;967;-75
2021/12/12 00:24:57;;;;;;;;;;;;;;;22.00;31.30;97254.28;4997210;28;1902;-75
2021/12/12 00:27:23;;;;;;;;;;;;;;;22.05;30.90;97262.16;5016307;28;843;-75
2021/12/12 00:29:48;;;;;;;;;;;;;;;22.25;30.59;97254.06;5015600;28;1288;-76
2021/12/12 00:32:14;;;;;;;;;;;;;;;21.47;32.12;97251.50;5016081;28;818;-75
2021/12/12 00:34:41;;;;;;;;;;;;;;;21.78;31.29;97255.13;5015425;28;1107;-76
2021/12/12 00:37:08;;;;;;;;;;;;;;;21.97;30.88;97249.56;5054328;28;805;-76
2021/12/12 00:39:34;;;;;;;;;;;;;;;22.07;30.17;97248.31;5055314;28;823;-76
2021/12/12 00:42:01;;;;;;;;;;;;;;;21.95;30.54;97252.03;5072595;28;1248;-75
2021/12/12 00:44:27;;;;;;;;;;;;;;;22.12;30.43;97244.88;5097787;28;1981;-76
2021/12/12 00:46:54;;;;;;;;;;;;;;;22.10;30.75;97241.72;5098705;28;750;-76
2021/12/12 00:49:19;;;;;;;;;;;;;;;22.22;30.32;97235.16;5095179;28;886;-75
2021/12/12 00:51:44;;;;;;;;;;;;;;;21.97;30.60;97224.06;5095487;28;1127;-75
2021/12/12 00:54:10;;;;;;;;;;;;;;;21.89;30.87;97231.25;5095125;28;937;-75
2021/12/12 00:56:36;;;;;;;;;;;;;;;21.63;31.57;97237.09;5095759;28;761;-75
2021/12/12 00:59:03;;;;;;;;;;;;;;;21.93;31.31;97218.53;5094977;28;924;-75
2021/12/12 01:01:29;;;;;;;;;;;;;;;21.96;30.63;97220.41;5095300;28;849;-75
2021/12/12 01:04:00;;;;;;;;;;;;;;;21.80;30.69;97200.84;5094758;28;1906;-75
2021/12/12 01:06:25;;;;;;;;;;;;;;;21.99;30.67;97208.16;5054983;28;1118;-76
2021/12/12 01:08:51;;;;;;;;;;;;;;;21.36;32.03;97205.81;5054702;28;1113;-75
2021/12/12 01:11:18;;;;;;;;;;;;;;;21.62;31.52;97201.56;5055334;28;790;-75
2021/12/12 01:13:43;;;;;;;;;;;;;;;21.68;31.18;97213.84;5054408;28;799;-75
2021/12/12 01:16:10;;;;;;;;;;;;;;;21.72;31.11;97211.69;5055052;28;828;-75
2021/12/12 01:18:37;;;;;;;;;;;;;;;21.90;30.51;97213.78;5054403;28;790;-75
2021/12/12 01:21:11;;;;;;;;;;;;;;;21.99;30.61;97227.19;5071622;28;890;-75
2021/12/12 01:23:39;;;;;;;;;;;;;;;21.42;32.08;97232.28;5073950;28;836;-76
2021/12/12 01:26:05;;;;;;;;;;;;;;;22.06;30.64;97219.19;5074681;28;1894;-75
2021/12/12 01:28:31;;;;;;;;;;;;;;;21.99;30.59;97213.81;5073972;28;961;-76
2021/12/12 01:30:57;;;;;;;;;;;;;;;21.58;31.57;97206.56;5057951;28;908;-76
2021/12/12 01:33:34;;;;;;;;;;;;;;;21.33;32.15;97199.03;5074121;28;759;-75
2021/12/12 01:36:04;;;;;;;;;;;;;;;21.44;32.18;97185.25;5074742;28;845;-75
2021/12/12 01:41:13;;;;;;;;;;;;;;;21.81;30.80;97197.56;5112024;28;1029;-76
2021/12/12 01:43:41;;;;;;;;;;;;;;;21.91;31.02;97194.75;5097135;28;1102;-75
2021/12/12 01:46:12;;;;;;;;;;;;;;;21.95;31.02;97196.19;5097872;28;1348;-76
2021/12/12 01:48:44;;;;;;;;;;;;;;;22.01;30.84;97182.19;5097099;28;900;-75
2021/12/12 01:51:10;;;;;;;;;;;;;;;21.67;30.79;97203.00;5074735;28;1153;-75
2021/12/12 01:53:37;;;;;;;;;;;;;;;22.05;30.57;97206.28;5074009;28;910;-75
2021/12/12 01:56:03;;;;;;;;;;;;;;;22.07;30.85;97208.66;5054655;28;1387;-75
2021/12/12 01:58:29;;;;;;;;;;;;;;;21.48;31.97;97219.09;5053565;28;826;-75
2021/12/12 02:00:56;;;;;;;;;;;;;;;21.85;30.87;97218.00;5053918;28;994;-76
2021/12/12 02:03:24;;;;;;;;;;;;;;;21.73;30.99;97212.47;5053627;28;1245;-75
2021/12/12 02:05:50;;;;;;;;;;;;;;;21.98;30.35;97217.91;5020566;28;1985;-76
2021/12/12 02:08:16;;;;;;;;;;;;;;;21.99;30.95;97215.88;5054156;28;921;-75
2021/12/12 02:10:43;;;;;;;;;;;;;;;21.62;31.64;97210.06;5053956;28;889;-75
2021/12/12 02:13:10;;;;;;;;;;;;;;;21.94;30.94;97217.28;5053839;28;905;-75
2021/12/12 02:15:37;;;;;;;;;;;;;;;21.59;31.51;97231.56;5037134;28;958;-75
2021/12/12 02:18:08;;;;;;;;;;;;;;;21.82;31.08;97233.13;5033943;28;889;-75
2021/12/12 02:20:39;;;;;;;;;;;;;;;21.54;31.54;97234.22;5034122;28;834;-75
2021/12/12 02:36:35;;;;;;;;;;;;;;;22.10;30.53;97202.06;5094384;28;766;-75
2021/12/12 02:39:01;;;;;;;;;;;;;;;21.96;30.36;97199.81;5093705;28;913;-75
2021/12/12 02:41:27;;;;;;;;;;;;;;;21.82;30.96;97210.47;5094075;28;798;-76
2021/12/12 02:43:53;;;;;;;;;;;;;;;21.19;32.24;97211.66;5093208;28;1905;-75
2021/12/12 02:46:25;;;;;;;;;;;;;;;21.87;30.81;97208.28;5053719;28;878;-75
2021/12/12 02:48:52;;;;;;;;;;;;;;;21.94;30.33;97211.59;5061461;28;875;-75
2021/12/12 02:51:18;;;;;;;;;;;;;;;22.03;30.90;97208.03;5053294;28;915;-75
2021/12/12 02:53:45;;;;;;;;;;;;;;;20.95;32.72;97204.88;5052847;28;969;-75
2021/12/12 02:56:11;;;;;;;;;;;;;;;21.91;30.77;97200.41;5054131;28;935;-75
2021/12/12 02:58:37;;;;;;;;;;;;;;;21.96;30.62;97203.41;5054563;28;947;-75
2021/12/12 03:01:10;;;;;;;;;;;;;;;22.00;30.07;97200.44;5057771;28;832;-75
2021/12/12 03:03:37;;;;;;;;;;;;;;;21.98;30.43;97200.13;5056918;28;956;-74
2021/12/12 03:06:04;;;;;;;;;;;;;;;21.94;30.53;97179.66;5057589;28;1898;-75
2021/12/12 03:08:29;;;;;;;;;;;;;;;21.70;31.13;97180.19;4997422;28;957;-75
2021/12/12 03:10:55;;;;;;;;;;;;;;;22.02;30.33;97178.09;4998411;28;945;-76
2021/12/12 03:13:21;;;;;;;;;;;;;;;21.98;30.33;97177.47;4997322;28;765;-75
2021/12/12 03:15:46;;;;;;;;;;;;;;;21.68;31.03;97179.88;4998146;28;794;-75
2021/12/12 03:18:13;;;;;;;;;;;;;;;21.83;30.86;97178.06;5031799;28;938;-76
2021/12/12 03:20:40;;;;;;;;;;;;;;;21.87;31.01;97174.31;5037630;28;775;-75
2021/12/12 03:23:05;;;;;;;;;;;;;;;21.78;30.73;97175.84;5053574;28;905;-75
2021/12/12 03:25:32;;;;;;;;;;;;;;;21.74;31.00;97185.72;5056904;28;1982;-75
2021/12/12 03:27:58;;;;;;;;;;;;;;;22.27;30.35;97185.59;5056930;28;788;-75
2021/12/12 03:30:23;;;;;;;;;;;;;;;22.04;30.10;97186.94;5056504;28;708;-75
2021/12/12 03:32:49;;;;;;;;;;;;;;;22.04;30.05;97181.25;5056728;28;930;-78
2021/12/12 03:35:14;;;;;;;;;;;;;;;21.59;30.99;97185.50;5056681;28;900;-78
2021/12/12 03:37:40;;;;;;;;;;;;;;;22.18;30.28;97199.75;5056906;28;794;-77
2021/12/12 03:40:11;;;;;;;;;;;;;;;21.96;30.81;97196.97;5088817;28;772;-78
2021/12/12 03:42:36;;;;;;;;;;;;;;;21.95;30.35;97198.22;5098296;28;1039;-77
2021/12/12 03:45:02;;;;;;;;;;;;;;;21.69;30.53;97212.59;5099090;28;1967;-77
2021/12/12 03:47:34;;;;;;;;;;;;;;;22.00;30.13;97212.56;5099458;28;1151;-77
2021/12/12 03:50:04;;;;;;;;;;;;;;;21.96;30.09;97225.28;5096438;28;1091;-77
2021/12/12 03:52:29;;;;;;;;;;;;;;;22.01;30.48;97221.84;5059540;28;1051;-77
2021/12/12 03:54:59;;;;;;;;;;;;;;;22.03;30.11;97225.03;5055588;28;976;-77
2021/12/12 03:57:25;;;;;;;;;;;;;;;22.07;30.14;97232.13;5056872;28;1138;-78
2021/12/12 03:59:50;;;;;;;;;;;;;;;22.04;30.67;97240.75;5056063;28;945;-77
2021/12/12 04:02:16;;;;;;;;;;;;;;;21.74;30.84;97243.13;5056372;28;810;-77
2021/12/12 04:04:42;;;;;;;;;;;;;;;21.84;30.47;97253.25;5055929;28;1935;-77
2021/12/12 04:07:09;;;;;;;;;;;;;;;21.78;30.60;97249.47;5056482;28;1252;-78
2021/12/12 04:09:35;;;;;;;;;;;;;;;21.95;30.48;97269.81;5055130;28;1020;-77
2021/12/12 04:12:02;;;;;;;;;;;;;;;21.73;30.93;97257.78;5056102;28;1000;-78
2021/12/12 04:14:27;;;;;;;;;;;;;;;21.71;31.36;97261.06;5055500;28;939;-77
2021/12/12 04:16:54;;;;;;;;;;;;;;;21.97;30.67;97272.22;5056122;28;814;-77
2021/12/12 04:19:19;;;;;;;;;;;;;;;22.07;30.12;97270.97;5055623;28;943;-78
2021/12/12 04:21:45;;;;;;;;;;;;;;;22.13;30.06;97285.38;5039656;28;810;-77
2021/12/12 04:24:10;;;;;;;;;;;;;;;22.06;30.08;97292.06;5066491;28;2004;-77
2021/12/12 04:26:39;;;;;;;;;;;;;;;22.16;30.99;97296.53;5075649;28;1212;-77
2021/12/12 04:29:14;;;;;;;;;;;;;;;22.72;31.34;97298.28;5075395;28;740;-78
2021/12/12 04:31:41;;;;;;;;;;;;;;;22.73;31.56;97299.09;5075576;28;1071;-77
2021/12/12 04:34:06;;;;;;;;;;;;;;;22.23;31.52;97312.50;5075186;28;769;-77
2021/12/12 04:36:33;;;;;;;;;;;;;;;22.00;31.27;97310.94;5075876;28;903;-78
2021/12/12 04:39:17;;;;;;;;;;;;;;;21.90;31.17;97312.13;5074921;28;735;-75
2021/12/12 04:41:43;;;;;;;;;;;;;;;22.01;30.96;97321.78;5075943;28;762;-75
2021/12/12 04:44:09;;;;;;;;;;;;;;;21.97;30.99;97337.38;5093783;28;1980;-76
2021/12/12 04:49:54;;;;;;;;;;;;;;;22.00;31.05;97361.91;5095600;28;769;-75
2021/12/12 04:52:07;;;;;;;;;;;;;;;21.81;31.60;97366.66;5095447;28;770;-75
2021/12/12 04:54:35;;;;;;;;;;;;;;;21.79;31.35;97357.84;5078158;28;813;-75
2021/12/12 04:57:26;;;;;;;;;;;;;;;21.80;32.04;97354.53;5078246;28;1330;-75
2021/12/12 04:59:54;;;;;;;;;;;;;;;22.65;32.08;97346.81;5034434;28;1055;-74
2021/12/12 05:02:34;;;;;;;;;;;;;;;22.67;32.39;97343.50;5018575;28;960;-75
2021/12/12 05:05:11;;;;;;;;;;;;;;;22.46;32.03;97365.00;4994862;28;1902;-75
2021/12/12 05:07:45;;;;;;;;;;;;;;;21.66;32.52;97369.25;4995152;28;980;-75
2021/12/12 05:10:12;;;;;;;;;;;;;;;21.90;31.88;97363.09;4978608;28;1039;-75
2021/12/12 05:12:42;;;;;;;;;;;;;;;21.79;31.99;97358.63;4956576;29;1223;-75
2021/12/12 05:15:14;;;;;;;;;;;;;;;22.07;31.53;97358.78;4917902;29;1024;-75
2021/12/12 05:17:42;;;;;;;;;;;;;;;21.97;32.03;97351.53;4902645;29;1026;-75
2021/12/12 05:20:09;;;;;;;;;;;;;;;22.19;32.00;97362.84;4902510;29;820;-75
2021/12/12 05:22:36;;;;;;;;;;;;;;;22.06;32.24;97365.72;4898494;29;894;-75
2021/12/12 05:25:03;;;;;;;;;;;;;;;22.12;31.94;97363.88;4883722;29;1895;-75
2021/12/12 05:27:29;;;;;;;;;;;;;;;22.04;31.54;97362.56;4868165;29;897;-75
2021/12/12 05:29:58;;;;;;;;;;;;;;;22.06;31.32;97368.56;4883256;29;982;-76
2021/12/12 05:32:24;;;;;;;;;;;;;;;21.95;31.57;97371.78;4899288;29;768;-75
2021/12/12 05:34:50;;;;;;;;;;;;;;;21.94;31.45;97369.44;4884176;29;910;-75
2021/12/12 05:37:16;;;;;;;;;;;;;;;22.15;31.19;97353.69;4984991;28;923;-76
2021/12/12 05:39:41;;;;;;;;;;;;;;;21.77;32.02;97349.81;4994911;28;973;-75
2021/12/12 05:42:07;;;;;;;;;;;;;;;21.77;31.86;97332.84;4994925;28;1480;-76
2021/12/12 05:44:32;;;;;;;;;;;;;;;21.79;31.82;97324.66;5008938;28;1962;-75
2021/12/12 05:46:59;;;;;;;;;;;;;;;21.84;31.84;97338.22;4998099;28;879;-75
2021/12/12 05:49:24;;;;;;;;;;;;;;;21.80;31.91;97348.88;4994703;28;874;-75
2021/12/12 05:51:50;;;;;;;;;;;;;;;21.55;32.11;97360.34;4995117;28;789;-76
2021/12/12 05:54:15;;;;;;;;;;;;;;;21.72;31.75;97364.56;4974961;28;908;-75
2021/12/12 05:56:41;;;;;;;;;;;;;;;21.88;31.24;97374.91;4959132;28;746;-76
2021/12/12 05:59:06;;;;;;;;;;;;;;;22.25;32.09;97373.09;4982677;28;786;-75
2021/12/12 06:01:32;;;;;;;;;;;;;;;22.55;32.51;97382.06;4994772;28;880;-75
2021/12/12 06:03:57;;;;;;;;;;;;;;;22.87;32.21;97384.38;4978098;28;1910;-75
2021/12/12 06:06:33;;;;;;;;;;;;;;;22.29;32.42;97387.94;4994609;28;815;-75
2021/12/12 06:09:00;;;;;;;;;;;;;;;21.90;32.56;97388.59;4994429;28;963;-75
2021/12/12 06:11:26;;;;;;;;;;;;;;;21.96;31.94;97400.91;4978562;28;799;-75
2021/12/12 06:13:51;;;;;;;;;;;;;;;22.11;32.00;97401.97;4978032;28;964;-75
2021/12/12 06:16:19;;;;;;;;;;;;;;;21.77;32.52;97423.44;5029200;28;970;-75
2021/12/12 06:18:47;;;;;;;;;;;;;;;21.91;32.31;97432.66;5053102;28;934;-75
2021/12/12 06:21:13;;;;;;;;;;;;;;;21.94;32.17;97429.72;5053958;28;969;-75
2021/12/12 06:23:38;;;;;;;;;;;;;;;21.83;32.81;97432.16;5036560;28;850;-75
2021/12/12 06:26:04;;;;;;;;;;;;;;;21.98;32.29;97421.09;5020838;28;1910;-75
2021/12/12 06:28:31;;;;;;;;;;;;;;;21.91;32.60;97421.34;5033160;28;938;-75
2021/12/12 06:30:57;;;;;;;;;;;;;;;21.93;33.12;97413.19;5219580;22;3729;-73
2021/12/12 06:33:22;;;;;;;;;;;;;;;22.76;32.55;97414.44;5077741;28;757;-74
2021/12/12 06:35:48;;;;;;;;;;;;;;;22.41;32.53;97408.13;5057792;28;921;-74
2021/12/12 06:38:14;;;;;;;;;;;;;;;22.05;32.60;97403.81;5057938;28;1164;-74
2021/12/12 06:40:40;;;;;;;;;;;;;;;21.95;32.15;97410.66;5017540;28;934;-74
2021/12/12 06:43:06;;;;;;;;;;;;;;;21.86;31.89;97400.06;5018265;28;860;-74
2021/12/12 06:45:32;;;;;;;;;;;;;;;21.94;32.36;97400.59;5001495;28;1995;-74
2021/12/12 06:47:57;;;;;;;;;;;;;;;21.92;32.38;97400.28;5017791;28;786;-74
2021/12/12 06:50:23;;;;;;;;;;;;;;;21.37;33.64;97394.97;5017658;28;905;-74
2021/12/12 06:52:49;;;;;;;;;;;;;;;21.47;33.81;97393.00;5017476;28;903;-74
2021/12/12 06:55:14;;;;;;;;;;;;;;;21.97;32.54;97402.50;4997907;28;991;-74
2021/12/12 06:57:40;;;;;;;;;;;;;;;21.71;32.55;97385.66;4981976;28;856;-74
2021/12/12 07:00:09;;;;;;;;;;;;;;;21.83;32.46;97370.63;4998041;28;814;-75
2021/12/12 07:02:35;;;;;;;;;;;;;;;21.60;33.05;97382.41;4998095;28;923;-74
2021/12/12 07:05:00;;;;;;;;;;;;;;;21.65;33.27;97386.69;4978381;28;1906;-74
2021/12/12 07:07:26;;;;;;;;;;;;;;;21.88;32.82;97388.28;4962310;28;967;-74
2021/12/12 07:09:51;;;;;;;;;;;;;;;21.97;32.57;97380.63;4978139;28;1332;-74
2021/12/12 07:12:22;;;;;;;;;;;;;;;20.97;34.53;97394.69;4993171;28;875;-74
2021/12/12 07:14:47;;;;;;;;;;;;;;;21.74;33.00;97396.03;4997943;28;948;-74
2021/12/12 07:17:13;;;;;;;;;;;;;;;21.78;32.25;97396.72;4998211;28;834;-74
2021/12/12 07:19:39;;;;;;;;;;;;;;;21.79;32.29;97403.16;4997767;28;1343;-74
2021/12/12 07:22:04;;;;;;;;;;;;;;;22.11;32.30;97399.16;4977800;28;906;-74
2021/12/12 07:24:30;;;;;;;;;;;;;;;21.39;33.66;97403.78;4977074;28;1986;-74
2021/12/12 07:26:55;;;;;;;;;;;;;;;21.82;32.59;97388.88;5013087;28;940;-74
2021/12/12 07:29:21;;;;;;;;;;;;;;;21.87;31.86;97398.03;5001039;28;755;-74
2021/12/12 07:31:47;;;;;;;;;;;;;;;21.76;31.91;97401.25;5000870;28;1324;-74
2021/12/12 07:34:13;;;;;;;;;;;;;;;21.59;32.72;97398.59;5017102;28;742;-74
2021/12/12 07:36:45;;;;;;;;;;;;;;;21.77;32.50;97405.66;5047704;28;892;-74
2021/12/12 07:39:11;;;;;;;;;;;;;;;21.97;31.98;97419.50;5056545;28;726;-74
2021/12/12 07:41:37;;;;;;;;;;;;;;;21.81;31.94;97418.47;5016792;28;949;-74
2021/12/12 07:44:04;;;;;;;;;;;;;;;21.84;31.82;97428.84;5016437;28;1999;-74
2021/12/12 07:46:30;;;;;;;;;;;;;;;22.14;31.80;97437.91;5016305;28;871;-74
2021/12/12 07:48:56;;;;;;;;;;;;;;;21.76;32.59;97438.88;5016547;28;803;-73
2021/12/12 07:51:22;;;;;;;;;;;;;;;21.94;31.77;97449.53;4958212;29;945;-74
2021/12/12 07:53:49;;;;;;;;;;;;;;;21.84;31.56;97468.50;4974017;28;886;-74
2021/12/12 07:56:15;;;;;;;;;;;;;;;22.08;31.84;97480.19;4977332;28;948;-74
2021/12/12 07:58:41;;;;;;;;;;;;;;;21.65;32.24;97471.63;4977689;28;850;-74
2021/12/12 08:01:06;;;;;;;;;;;;;;;21.90;31.81;97476.41;4993329;28;847;-74
2021/12/12 08:03:33;;;;;;;;;;;;;;;21.97;31.12;97464.84;4977430;28;792;-74
2021/12/12 08:06:00;;;;;;;;;;;;;;;21.77;31.56;97457.44;4976810;28;1899;-74
2021/12/12 08:08:25;;;;;;;;;;;;;;;21.69;31.75;97450.44;4977447;28;1032;-74
2021/12/12 08:10:51;;;;;;;;;;;;;;;21.62;32.40;97453.53;4977278;28;974;-74
2021/12/12 08:13:16;;;;;;;;;;;;;;;22.27;31.17;97466.16;4992561;28;818;-74
2021/12/12 08:15:42;;;;;;;;;;;;;;;21.89;31.40;97464.28;4996417;28;894;-74
2021/12/12 08:18:08;;;;;;;;;;;;;;;21.62;31.52;97467.69;4996905;28;1126;-74
2021/12/12 08:20:33;;;;;;;;;;;;;;;21.89;31.03;97478.44;4996536;28;1053;-74
2021/12/12 08:22:59;;;;;;;;;;;;;;;21.63;32.10;97463.59;5015930;28;1044;-75
2021/12/12 08:25:25;;;;;;;;;;;;;;;21.17;33.06;97463.09;5035635;28;1898;-74
2021/12/12 08:27:51;;;;;;;;;;;;;;;21.92;31.85;97456.94;5050739;28;1082;-74
2021/12/12 08:30:17;;;;;;;;;;;;;;;21.52;32.08;97457.53;5055851;28;1268;-74
2021/12/12 08:32:43;;;;;;;;;;;;;;;21.58;31.50;97455.69;5055869;28;963;-74
2021/12/12 08:35:10;;;;;;;;;;;;;;;21.73;31.22;97468.09;5038972;28;1332;-74
2021/12/12 08:37:36;;;;;;;;;;;;;;;21.84;31.67;97468.50;5055417;28;827;-74
2021/12/12 08:40:02;;;;;;;;;;;;;;;21.35;32.77;97475.88;5055557;28;1091;-74
2021/12/12 08:42:29;;;;;;;;;;;;;;;21.83;31.70;97488.78;5055546;28;838;-74
2021/12/12 08:44:55;;;;;;;;;;;;;;;21.72;31.50;97466.50;5055188;28;1981;-74
2021/12/12 08:47:20;;;;;;;;;;;;;;;21.77;31.17;97467.97;5055185;28;999;-74
2021/12/12 08:49:46;;;;;;;;;;;;;;;22.24;30.98;97462.22;5055020;28;1078;-74
2021/12/12 08:52:16;;;;;;;;;;;;;;;21.66;32.08;97461.88;5055285;28;993;-74
2021/12/12 08:54:42;;;;;;;;;;;;;;;21.84;31.43;97462.03;5055037;28;934;-75
2021/12/12 08:57:10;;;;;;;;;;;;;;;21.73;31.00;97455.97;5023293;28;904;-74
2021/12/12 08:59:37;;;;;;;;;;;;;;;21.75;30.91;97464.78;5021838;28;864;-74
2021/12/12 09:02:07;;;;;;;;;;;;;;;21.65;31.49;97471.63;5054797;28;999;-74
2021/12/12 09:04:34;;;;;;;;;;;;;;;21.73;31.52;97475.78;5038260;28;1910;-74
2021/12/12 09:07:03;;;;;;;;;;;;;;;21.77;31.38;97474.44;5038273;28;969;-74
2021/12/12 09:09:29;;;;;;;;;;;;;;;21.98;30.62;97472.06;5074188;28;818;-74
2021/12/12 09:12:00;;;;;;;;;;;;;;;21.68;30.71;97451.69;5077430;28;843;-74
2021/12/12 09:14:36;;;;;;;;;;;;;;;21.76;31.45;97450.19;5077150;28;781;-74
2021/12/12 09:17:05;;;;;;;;;;;;;;;22.38;31.84;97437.41;5076918;28;837;-74
2021/12/12 09:19:34;;;;;;;;;;;;;;;22.61;31.51;97422.72;5076951;28;837;-74
2021/12/12 09:22:10;;;;;;;;;;;;;;;22.23;31.16;97403.97;5054130;28;956;-74
2021/12/12 09:24:45;;;;;;;;;;;;;;;21.97;31.36;97402.50;5014861;28;1902;-74
2021/12/12 09:27:17;;;;;;;;;;;;;;;21.97;30.69;97377.81;5014752;28;960;-74
2021/12/12 09:29:51;;;;;;;;;;;;;;;21.63;32.16;97373.00;5015051;28;815;-74
2021/12/12 09:32:39;;;;;;;;;;;;;;;21.73;32.46;97374.66;4998538;28;1351;-74
2021/12/12 09:35:24;;;;;;;;;;;;;;;21.76;32.24;97376.56;5014359;28;932;-75
2021/12/12 09:37:54;;;;;;;;;;;;;;;21.95;31.54;97371.00;5014695;28;962;-74
2021/12/12 09:40:25;;;;;;;;;;;;;;;21.94;32.04;97363.78;4997898;28;968;-74
2021/12/12 09:42:54;;;;;;;;;;;;;;;21.99;31.95;97377.34;5010683;28;1145;-74
2021/12/12 09:45:39;;;;;;;;;;;;;;;21.94;31.98;97392.09;5012274;28;1918;-74
2021/12/12 09:51:17;;;;;;;;;;;;;;;22.79;32.52;97393.63;5236391;22;3505;-74
2021/12/12 09:53:54;;;;;;;;;;;;;;;22.97;31.95;97395.78;5081959;28;1189;-74
2021/12/12 09:56:39;;;;;;;;;;;;;;;21.92;32.16;97405.94;5076713;28;1010;-74
2021/12/12 09:59:06;;;;;;;;;;;;;;;21.84;32.63;97397.69;5076546;28;965;-74
2021/12/12 10:01:42;;;;;;;;;;;;;;;22.28;33.79;97394.84;5076682;28;918;-74
2021/12/12 10:04:08;;;;;;;;;;;;;;;22.69;32.95;97407.00;5053709;28;1894;-74
2021/12/12 10:06:34;;;;;;;;;;;;;;;22.27;32.29;97415.94;5054164;28;991;-74
2021/12/12 10:09:06;;;;;;;;;;;;;;;22.06;32.15;97428.03;5053644;28;995;-74
2021/12/12 10:11:43;;;;;;;;;;;;;;;21.76;32.04;97433.19;5054267;28;999;-74
2021/12/12 10:14:13;;;;;;;;;;;;;;;22.10;32.33;97442.88;5055795;28;2162;-74
2021/12/12 10:16:40;;;;;;;;;;;;;;;21.78;32.99;97447.69;5034127;28;985;-74
2021/12/12 10:19:12;;;;;;;;;;;;;;;21.74;33.23;97447.00;5017464;28;1353;-74
2021/12/12 10:22:03;;;;;;;;;;;;;;;21.82;32.72;97454.00;5034148;28;1169;-74
2021/12/12 10:24:29;;;;;;;;;;;;;;;21.77;32.29;97450.97;4955910;29;1971;-74
2021/12/12 10:27:08;;;;;;;;;;;;;;;21.91;32.10;97452.50;4955587;28;1054;-74
2021/12/12 10:29:37;;;;;;;;;;;;;;;21.89;31.85;97447.28;4940157;29;1074;-74
2021/12/12 10:32:03;;;;;;;;;;;;;;;21.91;32.04;97453.28;4955925;28;1003;-74
2021/12/12 10:34:32;;;;;;;;;;;;;;;21.75;32.60;97459.91;4964680;28;1034;-74
2021/12/12 10:37:08;;;;;;;;;;;;;;;21.89;32.20;97452.97;4955652;29;1086;-74
2021/12/12 10:39:37;;;;;;;;;;;;;;;22.16;32.10;97458.06;4955785;29;952;-74
2021/12/12 10:42:08;;;;;;;;;;;;;;;21.76;32.93;97433.19;4955759;29;1088;-74
2021/12/12 10:44:48;;;;;;;;;;;;;;;21.93;32.58;97435.84;4955507;29;1989;-74
2021/12/12 10:47:16;;;;;;;;;;;;;;;21.88;31.91;97447.75;4955950;29;1092;-74
2021/12/12 10:50:00;;;;;;;;;;;;;;;21.83;32.07;97421.59;4939566;29;1001;-74
2021/12/12 10:52:27;;;;;;;;;;;;;;;21.87;32.73;97415.03;4955668;29;1060;-74
2021/12/12 10:54:57;;;;;;;;;;;;;;;21.76;32.60;97427.53;4939651;29;1026;-74
2021/12/12 10:57:24;;;;;;;;;;;;;;;21.94;32.15;97441.03;4955319;29;1019;-74
2021/12/12 11:00:08;;;;;;;;;;;;;;;21.71;31.96;97436.63;4955913;29;947;-74
2021/12/12 11:02:41;;;;;;;;;;;;;;;21.56;31.93;97429.88;4994314;28;1097;-74
2021/12/12 11:05:10;;;;;;;;;;;;;;;21.35;33.09;97413.63;4978505;28;1902;-73
2021/12/12 11:07:39;;;;;;;;;;;;;;;21.29;33.27;97422.66;4977566;28;1132;-74
2021/12/12 11:10:08;;;;;;;;;;;;;;;21.82;31.97;97431.34;4969039;28;1392;-74
2021/12/12 11:12:40;;;;;;;;;;;;;;;21.69;32.14;97439.09;4955277;28;1017;-74
2021/12/12 11:15:07;;;;;;;;;;;;;;;21.73;31.77;97439.78;5001800;28;1049;-74
2021/12/12 11:17:37;;;;;;;;;;;;;;;21.59;32.59;97437.44;5013783;28;1011;-75
2021/12/12 11:20:07;;;;;;;;;;;;;;;21.70;32.38;97435.03;4997369;28;1105;-76
2021/12/12 11:22:40;;;;;;;;;;;;;;;21.95;31.58;97442.59;5016783;28;1265;-75
2021/12/12 11:25:06;;;;;;;;;;;;;;;21.91;31.22;97444.00;5014312;28;1894;-75
2021/12/12 11:27:43;;;;;;;;;;;;;;;22.19;31.14;97453.53;5022584;28;1317;-75
2021/12/12 11:30:10;;;;;;;;;;;;;;;21.90;31.91;97459.41;5036062;28;1202;-74
2021/12/12 11:32:36;;;;;;;;;;;;;;;21.92;31.66;97469.03;5036463;28;1233;-74
2021/12/12 11:35:02;;;;;;;;;;;;;;;21.78;31.39;97475.22;5016401;28;1369;-74
2021/12/12 11:37:32;;;;;;;;;;;;;;;21.88;31.10;97478.91;5016675;28;1773;-74
2021/12/12 11:40:07;;;;;;;;;;;;;;;21.73;30.93;97472.97;5016882;28;1033;-74
2021/12/12 11:42:56;;;;;;;;;;;;;;;21.93;31.52;97464.16;5016985;28;919;-74
2021/12/12 11:45:23;;;;;;;;;;;;;;;21.46;32.46;97450.88;5016376;28;1898;-74
2021/12/12 11:48:09;;;;;;;;;;;;;;;22.03;31.00;97441.09;4957852;28;1064;-74
2021/12/12 11:50:41;;;;;;;;;;;;;;;21.79;31.06;97457.75;4958287;28;1182;-74
2021/12/12 11:53:13;;;;;;;;;;;;;;;22.29;31.90;97452.31;4958400;28;1099;-74
2021/12/12 11:56:07;;;;;;;;;;;;;;;22.90;31.84;97445.09;4957895;28;928;-74
2021/12/12 11:58:53;;;;;;;;;;;;;;;22.27;32.10;97444.25;4948545;29;1159;-74
2021/12/12 12:01:37;;;;;;;;;;;;;;;22.02;31.79;97441.56;4898536;29;1157;-74
2021/12/12 12:04:05;;;;;;;;;;;;;;;21.77;31.54;97439.66;4901015;29;1024;-74
2021/12/12 12:06:35;;;;;;;;;;;;;;;22.00;31.30;97435.56;4914462;29;1197;-74
2021/12/12 12:09:03;;;;;;;;;;;;;;;21.99;31.70;97434.00;4919954;29;992;-74
2021/12/12 12:11:47;;;;;;;;;;;;;;;21.42;33.56;97444.53;4919820;29;1018;-73
2021/12/12 12:14:31;;;;;;;;;;;;;;;21.60;33.14;97470.16;4919645;29;974;-74
2021/12/12 12:17:05;;;;;;;;;;;;;;;21.99;31.95;97476.47;4919701;29;1026;-74
2021/12/12 12:19:42;;;;;;;;;;;;;;;21.66;32.72;97484.53;4900670;29;1028;-74
2021/12/12 12:22:08;;;;;;;;;;;;;;;21.81;32.67;97480.75;4881715;29;1614;-74
2021/12/12 12:24:55;;;;;;;;;;;;;;;22.01;32.20;97482.47;4885848;29;1983;-74
2021/12/12 12:27:27;;;;;;;;;;;;;;;21.96;31.68;97468.88;4900529;29;1012;-74
2021/12/12 12:29:53;;;;;;;;;;;;;;;22.14;31.54;97469.06;4900588;29;1006;-74
2021/12/12 12:32:37;;;;;;;;;;;;;;;21.71;32.59;97464.13;4900204;29;1018;-74
2021/12/12 12:35:11;;;;;;;;;;;;;;;21.78;32.72;97458.22;4900350;29;1489;-74
2021/12/12 12:37:55;;;;;;;;;;;;;;;22.04;31.77;97453.22;4913070;28;1032;-74
2021/12/12 12:40:39;;;;;;;;;;;;;;;21.92;31.70;97446.38;4976883;28;918;-74
2021/12/12 12:43:22;;;;;;;;;;;;;;;21.95;31.56;97453.16;4976852;28;983;-74
2021/12/12 12:46:06;;;;;;;;;;;;;;;21.72;32.49;97465.72;4957114;28;1903;-74
2021/12/12 12:48:50;;;;;;;;;;;;;;;21.41;33.15;97469.22;4957341;28;990;-74
2021/12/12 12:51:36;;;;;;;;;;;;;;;21.66;32.72;97451.38;4957332;28;1039;-74
2021/12/12 12:54:04;;;;;;;;;;;;;;;21.94;31.58;97448.75;4951280;28;1316;-74
2021/12/12 12:56:32;;;;;;;;;;;;;;;22.13;31.76;97433.50;4957016;28;1018;-74
2021/12/12 12:59:18;;;;;;;;;;;;;;;21.70;32.30;97425.72;4971167;28;995;-74
2021/12/12 13:01:52;;;;;;;;;;;;;;;22.01;31.92;97442.81;4976381;28;959;-74
2021/12/12 13:04:25;;;;;;;;;;;;;;;22.06;31.14;97462.03;4967751;28;1895;-74
2021/12/12 13:07:13;;;;;;;;;;;;;;;21.92;31.21;97473.91;4937623;29;1018;-74
2021/12/12 13:09:57;;;;;;;;;;;;;;;21.74;32.08;97472.50;4899460;29;1028;-74
2021/12/12 13:12:23;;;;;;;;;;;;;;;21.94;31.78;97479.91;4899914;29;1061;-74
2021/12/12 13:14:53;;;;;;;;;;;;;;;21.84;31.43;97473.38;4899398;29;1024;-74
2021/12/12 13:17:41;;;;;;;;;;;;;;;21.85;31.53;97472.13;4912630;29;980;-74
2021/12/12 13:20:07;;;;;;;;;;;;;;;21.79;31.22;97477.56;4918770;29;1018;-74
2021/12/12 13:22:35;;;;;;;;;;;;;;;21.76;31.88;97492.66;4918546;29;1021;-74
2021/12/12 13:25:09;;;;;;;;;;;;;;;22.22;31.06;97495.88;4927423;29;1906;-74
2021/12/12 13:30:27;;;;;;;;;;;;;;;21.75;31.19;97518.59;4910295;28;994;-74
2021/12/12 13:32:55;;;;;;;;;;;;;;;21.75;31.64;97532.75;4960836;28;985;-74
2021/12/12 13:35:30;;;;;;;;;;;;;;;21.55;31.95;97530.19;4975602;28;972;-74
2021/12/12 13:38:10;;;;;;;;;;;;;;;21.85;31.42;97532.38;4975827;28;989;-74
2021/12/12 13:40:47;;;;;;;;;;;;;;;21.57;31.47;97541.88;4985302;28;1024;-74